sensor_id;sensor_type;location;lat;lon;timestamp;P1;durP1;ratioP1;P2;durP2;ratioP2
41903;SDS011;27586;51.124;4.182;2022-09-14T00:02:05;0.80;;;0.80;;
41903;SDS011;27586;51.124;4.182;2022-09-14T00:04:30;1.15;;;0.80;;
41903;SDS011;27586;51.124;4.182;2022-09-14T00:06:56;1.23;;;0.98;;
41903;SDS011;27586;51.124;4.182;2022-09-14T00:09:23;0.80;;;0.80;;
41903;SDS011;27586;51.124;4.182;2022-09-14T00:11:50;1.13;;;0.80;;
41903;SDS011;27586;51.124;4.182;2022-09-14T00:14:17;0.90;;;0.90;;
41903;SDS011;27586;51.124;4.182;2022-09-14T00:16:43;0.98;;;0.60;;
41903;SDS011;27586;51.124;4.182;2022-09-14T00:19:15;0.80;;;0.75;;
41903;SDS011;27586;51.124;4.182;2022-09-14T00:21:43;1.50;;;1.05;;
41903;SDS011;27586;51.124;4.182;2022-09-14T00:24:10;1.23;;;1.13;;
41903;SDS011;27586;51.124;4.182;2022-09-14T00:26:36;0.98;;;0.75;;
41903;SDS011;27586;51.124;4.182;2022-09-14T00:29:02;0.82;;;0.60;;
41903;SDS011;27586;51.124;4.182;2022-09-14T00:31:33;0.80;;;0.80;;
41903;SDS011;27586;51.124;4.182;2022-09-14T00:34:00;1.38;;;0.82;;
41903;SDS011;27586;51.124;4.182;2022-09-14T00:36:27;1.17;;;1.08;;
41903;SDS011;27586;51.124;4.182;2022-09-14T00:38:54;0.75;;;0.70;;
41903;SDS011;27586;51.124;4.182;2022-09-14T00:41:22;1.40;;;1.02;;
41903;SDS011;27586;51.124;4.182;2022-09-14T00:43:58;2.15;;;0.90;;
41903;SDS011;27586;51.124;4.182;2022-09-14T00:46:27;1.48;;;1.00;;
41903;SDS011;27586;51.124;4.182;2022-09-14T00:48:56;0.55;;;0.55;;
41903;SDS011;27586;51.124;4.182;2022-09-14T00:51:26;1.00;;;0.80;;
41903;SDS011;27586;51.124;4.182;2022-09-14T00:53:55;1.10;;;1.00;;
41903;SDS011;27586;51.124;4.182;2022-09-14T00:56:21;0.80;;;0.80;;
41903;SDS011;27586;51.124;4.182;2022-09-14T00:58:48;1.17;;;1.08;;
41903;SDS011;27586;51.124;4.182;2022-09-14T01:01:15;1.02;;;0.77;;
41903;SDS011;27586;51.124;4.182;2022-09-14T01:03:41;1.20;;;1.10;;
41903;SDS011;27586;51.124;4.182;2022-09-14T01:08:45;1.70;;;0.60;;
41903;SDS011;27586;51.124;4.182;2022-09-14T01:14:27;0.95;;;0.75;;
41903;SDS011;27586;51.124;4.182;2022-09-14T01:25:57;1.00;;;0.70;;
41903;SDS011;27586;51.124;4.182;2022-09-14T01:28:53;1.45;;;1.13;;
41903;SDS011;27586;51.124;4.182;2022-09-14T01:31:39;0.85;;;0.60;;
41903;SDS011;27586;51.124;4.182;2022-09-14T01:34:33;0.82;;;0.65;;
41903;SDS011;27586;51.124;4.182;2022-09-14T01:37:08;0.60;;;0.60;;
41903;SDS011;27586;51.124;4.182;2022-09-14T01:39:44;2.03;;;1.00;;
41903;SDS011;27586;51.124;4.182;2022-09-14T01:42:14;0.75;;;0.68;;
41903;SDS011;27586;51.124;4.182;2022-09-14T01:44:45;1.00;;;0.90;;
41903;SDS011;27586;51.124;4.182;2022-09-14T01:47:24;1.17;;;0.90;;
41903;SDS011;27586;51.124;4.182;2022-09-14T01:53:07;1.00;;;0.70;;
41903;SDS011;27586;51.124;4.182;2022-09-14T01:55:59;0.70;;;0.63;;
41903;SDS011;27586;51.124;4.182;2022-09-14T01:58:29;1.10;;;1.00;;
41903;SDS011;27586;51.124;4.182;2022-09-14T02:01:06;0.80;;;0.65;;
41903;SDS011;27586;51.124;4.182;2022-09-14T02:03:45;1.85;;;0.90;;
41903;SDS011;27586;51.124;4.182;2022-09-14T02:09:00;2.00;;;1.25;;
41903;SDS011;27586;51.124;4.182;2022-09-14T02:11:27;1.20;;;0.80;;
41903;SDS011;27586;51.124;4.182;2022-09-14T02:13:53;0.57;;;0.57;;
41903;SDS011;27586;51.124;4.182;2022-09-14T02:16:19;1.42;;;0.70;;
41903;SDS011;27586;51.124;4.182;2022-09-14T02:18:47;1.55;;;0.90;;
41903;SDS011;27586;51.124;4.182;2022-09-14T02:21:15;0.95;;;0.80;;
41903;SDS011;27586;51.124;4.182;2022-09-14T02:23:42;1.00;;;0.85;;
41903;SDS011;27586;51.124;4.182;2022-09-14T02:26:09;1.63;;;1.27;;
41903;SDS011;27586;51.124;4.182;2022-09-14T02:28:35;2.08;;;1.00;;
41903;SDS011;27586;51.124;4.182;2022-09-14T02:36:42;1.00;;;0.90;;
41903;SDS011;27586;51.124;4.182;2022-09-14T02:52:50;1.00;;;0.90;;
41903;SDS011;27586;51.124;4.182;2022-09-14T02:55:24;0.70;;;0.70;;
41903;SDS011;27586;51.124;4.182;2022-09-14T03:00:32;3.13;;;1.15;;
41903;SDS011;27586;51.124;4.182;2022-09-14T03:03:00;0.93;;;0.80;;
41903;SDS011;27586;51.124;4.182;2022-09-14T03:05:27;2.10;;;1.00;;
41903;SDS011;27586;51.124;4.182;2022-09-14T03:07:53;1.30;;;0.90;;
41903;SDS011;27586;51.124;4.182;2022-09-14T03:10:19;0.90;;;0.90;;
41903;SDS011;27586;51.124;4.182;2022-09-14T03:12:45;0.65;;;0.65;;
41903;SDS011;27586;51.124;4.182;2022-09-14T03:15:11;1.10;;;0.82;;
41903;SDS011;27586;51.124;4.182;2022-09-14T03:17:36;1.42;;;1.30;;
41903;SDS011;27586;51.124;4.182;2022-09-14T03:20:02;1.60;;;1.13;;
41903;SDS011;27586;51.124;4.182;2022-09-14T03:22:28;2.13;;;1.48;;
41903;SDS011;27586;51.124;4.182;2022-09-14T03:24:54;1.55;;;1.17;;
41903;SDS011;27586;51.124;4.182;2022-09-14T03:27:20;1.75;;;1.30;;
41903;SDS011;27586;51.124;4.182;2022-09-14T03:29:45;1.25;;;1.15;;
41903;SDS011;27586;51.124;4.182;2022-09-14T03:32:12;1.52;;;1.27;;
41903;SDS011;27586;51.124;4.182;2022-09-14T03:34:37;1.20;;;1.10;;
41903;SDS011;27586;51.124;4.182;2022-09-14T03:37:03;1.38;;;1.13;;
41903;SDS011;27586;51.124;4.182;2022-09-14T03:39:30;2.42;;;1.73;;
41903;SDS011;27586;51.124;4.182;2022-09-14T03:41:56;2.38;;;1.85;;
41903;SDS011;27586;51.124;4.182;2022-09-14T03:44:21;2.05;;;1.58;;
41903;SDS011;27586;51.124;4.182;2022-09-14T03:46:47;2.40;;;1.60;;
41903;SDS011;27586;51.124;4.182;2022-09-14T03:49:13;2.03;;;1.83;;
41903;SDS011;27586;51.124;4.182;2022-09-14T03:51:38;1.58;;;1.33;;
41903;SDS011;27586;51.124;4.182;2022-09-14T03:54:04;2.50;;;1.70;;
41903;SDS011;27586;51.124;4.182;2022-09-14T03:56:30;1.88;;;1.60;;
41903;SDS011;27586;51.124;4.182;2022-09-14T03:58:55;1.90;;;1.33;;
41903;SDS011;27586;51.124;4.182;2022-09-14T04:01:21;2.20;;;1.40;;
41903;SDS011;27586;51.124;4.182;2022-09-14T04:03:47;2.60;;;1.85;;
41903;SDS011;27586;51.124;4.182;2022-09-14T04:06:14;1.70;;;1.50;;
41903;SDS011;27586;51.124;4.182;2022-09-14T04:08:41;1.85;;;1.67;;
41903;SDS011;27586;51.124;4.182;2022-09-14T04:11:15;1.70;;;1.48;;
41903;SDS011;27586;51.124;4.182;2022-09-14T04:13:46;2.42;;;1.80;;
41903;SDS011;27586;51.124;4.182;2022-09-14T04:16:12;1.55;;;1.38;;
41903;SDS011;27586;51.124;4.182;2022-09-14T04:18:38;1.95;;;1.48;;
41903;SDS011;27586;51.124;4.182;2022-09-14T04:21:08;2.38;;;1.40;;
41903;SDS011;27586;51.124;4.182;2022-09-14T04:23:37;3.42;;;1.45;;
41903;SDS011;27586;51.124;4.182;2022-09-14T04:26:08;1.42;;;1.25;;
41903;SDS011;27586;51.124;4.182;2022-09-14T04:28:36;1.25;;;1.15;;
41903;SDS011;27586;51.124;4.182;2022-09-14T04:31:02;1.67;;;1.33;;
41903;SDS011;27586;51.124;4.182;2022-09-14T04:33:28;1.98;;;1.48;;
41903;SDS011;27586;51.124;4.182;2022-09-14T04:35:55;1.85;;;1.55;;
41903;SDS011;27586;51.124;4.182;2022-09-14T04:38:22;1.95;;;1.30;;
41903;SDS011;27586;51.124;4.182;2022-09-14T04:40:48;1.42;;;1.33;;
41903;SDS011;27586;51.124;4.182;2022-09-14T04:43:14;1.80;;;1.40;;
41903;SDS011;27586;51.124;4.182;2022-09-14T04:45:39;2.00;;;1.23;;
41903;SDS011;27586;51.124;4.182;2022-09-14T04:48:05;1.42;;;1.10;;
41903;SDS011;27586;51.124;4.182;2022-09-14T04:50:31;1.40;;;1.30;;
41903;SDS011;27586;51.124;4.182;2022-09-14T04:52:56;2.17;;;1.50;;
41903;SDS011;27586;51.124;4.182;2022-09-14T04:55:22;1.77;;;1.27;;
41903;SDS011;27586;51.124;4.182;2022-09-14T04:57:48;1.60;;;1.45;;
41903;SDS011;27586;51.124;4.182;2022-09-14T05:00:15;2.53;;;1.75;;
41903;SDS011;27586;51.124;4.182;2022-09-14T05:02:40;1.95;;;1.52;;
41903;SDS011;27586;51.124;4.182;2022-09-14T05:05:06;2.35;;;1.95;;
41903;SDS011;27586;51.124;4.182;2022-09-14T05:07:32;2.45;;;1.77;;
41903;SDS011;27586;51.124;4.182;2022-09-14T05:09:58;2.53;;;2.13;;
41903;SDS011;27586;51.124;4.182;2022-09-14T05:12:24;3.35;;;2.40;;
41903;SDS011;27586;51.124;4.182;2022-09-14T05:14:50;3.13;;;2.33;;
41903;SDS011;27586;51.124;4.182;2022-09-14T05:17:15;3.45;;;2.10;;
41903;SDS011;27586;51.124;4.182;2022-09-14T05:19:41;3.10;;;2.38;;
41903;SDS011;27586;51.124;4.182;2022-09-14T05:22:07;2.83;;;2.22;;
41903;SDS011;27586;51.124;4.182;2022-09-14T05:24:32;3.75;;;2.25;;
41903;SDS011;27586;51.124;4.182;2022-09-14T05:26:58;2.97;;;2.38;;
41903;SDS011;27586;51.124;4.182;2022-09-14T05:29:24;2.22;;;2.03;;
41903;SDS011;27586;51.124;4.182;2022-09-14T05:31:50;3.22;;;2.50;;
41903;SDS011;27586;51.124;4.182;2022-09-14T05:34:15;2.72;;;2.42;;
41903;SDS011;27586;51.124;4.182;2022-09-14T05:36:41;3.03;;;2.30;;
41903;SDS011;27586;51.124;4.182;2022-09-14T05:39:07;2.40;;;1.88;;
41903;SDS011;27586;51.124;4.182;2022-09-14T05:41:33;2.63;;;2.08;;
41903;SDS011;27586;51.124;4.182;2022-09-14T05:43:59;2.38;;;1.88;;
41903;SDS011;27586;51.124;4.182;2022-09-14T05:46:25;3.45;;;2.78;;
41903;SDS011;27586;51.124;4.182;2022-09-14T05:48:51;2.78;;;2.13;;
41903;SDS011;27586;51.124;4.182;2022-09-14T05:51:18;4.55;;;2.92;;
41903;SDS011;27586;51.124;4.182;2022-09-14T05:53:48;2.05;;;1.85;;
41903;SDS011;27586;51.124;4.182;2022-09-14T05:56:19;1.80;;;1.58;;
41903;SDS011;27586;51.124;4.182;2022-09-14T05:58:46;1.60;;;1.42;;
41903;SDS011;27586;51.124;4.182;2022-09-14T06:01:16;2.38;;;2.03;;
41903;SDS011;27586;51.124;4.182;2022-09-14T06:03:44;1.55;;;1.42;;
41903;SDS011;27586;51.124;4.182;2022-09-14T06:06:11;1.80;;;1.70;;
41903;SDS011;27586;51.124;4.182;2022-09-14T06:08:38;2.47;;;1.60;;
41903;SDS011;27586;51.124;4.182;2022-09-14T06:13:38;2.40;;;1.67;;
41903;SDS011;27586;51.124;4.182;2022-09-14T06:16:05;2.00;;;1.70;;
41903;SDS011;27586;51.124;4.182;2022-09-14T06:18:33;2.10;;;1.92;;
41903;SDS011;27586;51.124;4.182;2022-09-14T06:21:00;1.70;;;1.60;;
41903;SDS011;27586;51.124;4.182;2022-09-14T06:23:27;2.72;;;2.10;;
41903;SDS011;27586;51.124;4.182;2022-09-14T06:25:54;2.00;;;1.80;;
41903;SDS011;27586;51.124;4.182;2022-09-14T06:28:21;2.75;;;1.92;;
41903;SDS011;27586;51.124;4.182;2022-09-14T06:30:48;1.83;;;1.63;;
41903;SDS011;27586;51.124;4.182;2022-09-14T06:33:14;1.40;;;1.30;;
41903;SDS011;27586;51.124;4.182;2022-09-14T06:35:40;1.70;;;1.42;;
41903;SDS011;27586;51.124;4.182;2022-09-14T06:38:06;2.13;;;1.67;;
41903;SDS011;27586;51.124;4.182;2022-09-14T06:40:33;2.22;;;1.80;;
41903;SDS011;27586;51.124;4.182;2022-09-14T06:42:59;6.97;;;3.30;;
41903;SDS011;27586;51.124;4.182;2022-09-14T06:45:28;3.28;;;2.45;;
41903;SDS011;27586;51.124;4.182;2022-09-14T06:47:55;2.58;;;2.00;;
41903;SDS011;27586;51.124;4.182;2022-09-14T06:50:21;3.53;;;2.70;;
41903;SDS011;27586;51.124;4.182;2022-09-14T06:52:46;2.28;;;2.05;;
41903;SDS011;27586;51.124;4.182;2022-09-14T06:55:12;2.60;;;1.85;;
41903;SDS011;27586;51.124;4.182;2022-09-14T06:57:38;2.42;;;2.08;;
41903;SDS011;27586;51.124;4.182;2022-09-14T07:00:03;2.17;;;1.58;;
41903;SDS011;27586;51.124;4.182;2022-09-14T07:02:30;2.28;;;2.05;;
41903;SDS011;27586;51.124;4.182;2022-09-14T07:04:55;2.22;;;1.73;;
41903;SDS011;27586;51.124;4.182;2022-09-14T07:07:21;3.20;;;2.30;;
41903;SDS011;27586;51.124;4.182;2022-09-14T07:09:47;2.30;;;1.90;;
41903;SDS011;27586;51.124;4.182;2022-09-14T07:12:13;2.30;;;1.90;;
41903;SDS011;27586;51.124;4.182;2022-09-14T07:14:39;2.50;;;2.10;;
41903;SDS011;27586;51.124;4.182;2022-09-14T07:17:05;2.90;;;2.10;;
41903;SDS011;27586;51.124;4.182;2022-09-14T07:19:30;2.33;;;1.77;;
41903;SDS011;27586;51.124;4.182;2022-09-14T07:21:56;2.25;;;1.90;;
41903;SDS011;27586;51.124;4.182;2022-09-14T07:24:22;2.40;;;2.10;;
41903;SDS011;27586;51.124;4.182;2022-09-14T07:26:47;2.00;;;1.75;;
41903;SDS011;27586;51.124;4.182;2022-09-14T07:29:16;2.75;;;2.17;;
41903;SDS011;27586;51.124;4.182;2022-09-14T07:31:47;2.42;;;2.05;;
41903;SDS011;27586;51.124;4.182;2022-09-14T07:34:15;3.13;;;2.08;;
41903;SDS011;27586;51.124;4.182;2022-09-14T07:36:42;2.20;;;1.88;;
41903;SDS011;27586;51.124;4.182;2022-09-14T07:39:09;2.20;;;1.75;;
41903;SDS011;27586;51.124;4.182;2022-09-14T07:41:36;2.33;;;1.98;;
41903;SDS011;27586;51.124;4.182;2022-09-14T07:44:03;2.92;;;2.00;;
41903;SDS011;27586;51.124;4.182;2022-09-14T07:46:31;3.15;;;2.13;;
41903;SDS011;27586;51.124;4.182;2022-09-14T07:49:02;1.95;;;1.75;;
41903;SDS011;27586;51.124;4.182;2022-09-14T07:51:29;2.28;;;1.92;;
41903;SDS011;27586;51.124;4.182;2022-09-14T07:53:55;2.28;;;1.70;;
41903;SDS011;27586;51.124;4.182;2022-09-14T07:56:22;4.78;;;3.08;;
41903;SDS011;27586;51.124;4.182;2022-09-14T07:58:51;3.08;;;1.83;;
41903;SDS011;27586;51.124;4.182;2022-09-14T08:01:18;3.95;;;3.15;;
41903;SDS011;27586;51.124;4.182;2022-09-14T08:03:44;2.38;;;2.17;;
41903;SDS011;27586;51.124;4.182;2022-09-14T08:08:44;1.95;;;1.75;;
41903;SDS011;27586;51.124;4.182;2022-09-14T08:13:41;1.92;;;1.67;;
41903;SDS011;27586;51.124;4.182;2022-09-14T08:16:08;2.83;;;1.75;;
41903;SDS011;27586;51.124;4.182;2022-09-14T08:18:35;2.65;;;2.08;;
41903;SDS011;27586;51.124;4.182;2022-09-14T08:21:05;1.98;;;1.50;;
41903;SDS011;27586;51.124;4.182;2022-09-14T08:23:33;2.40;;;1.73;;
41903;SDS011;27586;51.124;4.182;2022-09-14T08:26:05;2.08;;;1.75;;
41903;SDS011;27586;51.124;4.182;2022-09-14T08:28:32;2.42;;;1.85;;
41903;SDS011;27586;51.124;4.182;2022-09-14T08:31:10;1.90;;;1.45;;
41903;SDS011;27586;51.124;4.182;2022-09-14T08:33:38;2.20;;;1.70;;
41903;SDS011;27586;51.124;4.182;2022-09-14T08:36:09;2.05;;;1.85;;
41903;SDS011;27586;51.124;4.182;2022-09-14T08:38:36;1.52;;;1.42;;
41903;SDS011;27586;51.124;4.182;2022-09-14T08:41:16;1.70;;;1.60;;
41903;SDS011;27586;51.124;4.182;2022-09-14T08:43:48;1.50;;;1.40;;
41903;SDS011;27586;51.124;4.182;2022-09-14T08:46:33;1.30;;;1.20;;
41903;SDS011;27586;51.124;4.182;2022-09-14T08:49:02;1.27;;;1.15;;
41903;SDS011;27586;51.124;4.182;2022-09-14T08:51:35;1.20;;;1.10;;
41903;SDS011;27586;51.124;4.182;2022-09-14T08:54:00;1.40;;;1.20;;
41903;SDS011;27586;51.124;4.182;2022-09-14T08:56:32;1.50;;;1.40;;
41903;SDS011;27586;51.124;4.182;2022-09-14T09:02:02;2.50;;;1.70;;
41903;SDS011;27586;51.124;4.182;2022-09-14T09:07:28;1.30;;;1.20;;
41903;SDS011;27586;51.124;4.182;2022-09-14T09:10:31;1.40;;;1.30;;
41903;SDS011;27586;51.124;4.182;2022-09-14T09:13:01;1.98;;;1.15;;
41903;SDS011;27586;51.124;4.182;2022-09-14T09:15:51;1.65;;;1.55;;
41903;SDS011;27586;51.124;4.182;2022-09-14T09:21:10;2.15;;;1.30;;
41903;SDS011;27586;51.124;4.182;2022-09-14T09:23:40;1.20;;;1.05;;
41903;SDS011;27586;51.124;4.182;2022-09-14T09:28:47;1.13;;;1.02;;
41903;SDS011;27586;51.124;4.182;2022-09-14T09:31:16;2.03;;;1.80;;
41903;SDS011;27586;51.124;4.182;2022-09-14T09:33:48;1.63;;;1.40;;
41903;SDS011;27586;51.124;4.182;2022-09-14T09:36:14;0.95;;;0.93;;
41903;SDS011;27586;51.124;4.182;2022-09-14T09:38:41;1.27;;;1.17;;
41903;SDS011;27586;51.124;4.182;2022-09-14T09:44:01;1.48;;;1.25;;
41903;SDS011;27586;51.124;4.182;2022-09-14T09:46:33;1.55;;;1.17;;
41903;SDS011;27586;51.124;4.182;2022-09-14T09:49:18;1.23;;;1.13;;
41903;SDS011;27586;51.124;4.182;2022-09-14T09:52:08;1.25;;;1.15;;
41903;SDS011;27586;51.124;4.182;2022-09-14T09:54:36;4.30;;;2.28;;
41903;SDS011;27586;51.124;4.182;2022-09-14T09:57:21;1.90;;;1.80;;
41903;SDS011;27586;51.124;4.182;2022-09-14T09:59:52;1.85;;;1.30;;
41903;SDS011;27586;51.124;4.182;2022-09-14T10:02:38;0.95;;;0.95;;
41903;SDS011;27586;51.124;4.182;2022-09-14T10:07:38;1.15;;;1.05;;
41903;SDS011;27586;51.124;4.182;2022-09-14T10:10:13;1.08;;;0.98;;
41903;SDS011;27586;51.124;4.182;2022-09-14T10:12:48;1.50;;;1.38;;
41903;SDS011;27586;51.124;4.182;2022-09-14T10:20:31;1.75;;;1.55;;
41903;SDS011;27586;51.124;4.182;2022-09-14T10:23:13;1.23;;;1.10;;
41903;SDS011;27586;51.124;4.182;2022-09-14T10:25:42;1.10;;;1.00;;
41903;SDS011;27586;51.124;4.182;2022-09-14T10:28:22;1.27;;;1.02;;
41903;SDS011;27586;51.124;4.182;2022-09-14T10:33:33;0.80;;;0.80;;
41903;SDS011;27586;51.124;4.182;2022-09-14T10:37:03;1.88;;;1.42;;
41903;SDS011;27586;51.124;4.182;2022-09-14T10:39:16;1.13;;;1.02;;
41903;SDS011;27586;51.124;4.182;2022-09-14T10:42:22;1.20;;;1.10;;
41903;SDS011;27586;51.124;4.182;2022-09-14T10:55:42;2.60;;;1.95;;
41903;SDS011;27586;51.124;4.182;2022-09-14T11:03:46;2.58;;;1.98;;
41903;SDS011;27586;51.124;4.182;2022-09-14T11:06:27;2.88;;;2.00;;
41903;SDS011;27586;51.124;4.182;2022-09-14T11:09:01;3.05;;;2.30;;
41903;SDS011;27586;51.124;4.182;2022-09-14T11:11:44;2.20;;;1.70;;
41903;SDS011;27586;51.124;4.182;2022-09-14T11:22:13;1.42;;;1.13;;
41903;SDS011;27586;51.124;4.182;2022-09-14T11:24:50;2.17;;;1.67;;
41903;SDS011;27586;51.124;4.182;2022-09-14T11:27:25;1.65;;;1.45;;
41903;SDS011;27586;51.124;4.182;2022-09-14T11:30:03;2.15;;;1.95;;
41903;SDS011;27586;51.124;4.182;2022-09-14T11:32:37;2.45;;;1.67;;
41903;SDS011;27586;51.124;4.182;2022-09-14T11:37:42;1.75;;;1.60;;
41903;SDS011;27586;51.124;4.182;2022-09-14T11:42:58;1.40;;;1.30;;
41903;SDS011;27586;51.124;4.182;2022-09-14T11:45:47;0.90;;;0.80;;
41903;SDS011;27586;51.124;4.182;2022-09-14T11:48:36;1.08;;;0.95;;
41903;SDS011;27586;51.124;4.182;2022-09-14T11:51:10;0.88;;;0.75;;
41903;SDS011;27586;51.124;4.182;2022-09-14T11:53:43;1.00;;;0.90;;
41903;SDS011;27586;51.124;4.182;2022-09-14T11:56:25;0.98;;;0.90;;
41903;SDS011;27586;51.124;4.182;2022-09-14T11:58:53;1.00;;;0.90;;
41903;SDS011;27586;51.124;4.182;2022-09-14T12:01:29;0.93;;;0.77;;
41903;SDS011;27586;51.124;4.182;2022-09-14T12:11:48;0.80;;;0.70;;
41903;SDS011;27586;51.124;4.182;2022-09-14T12:14:25;1.13;;;1.00;;
41903;SDS011;27586;51.124;4.182;2022-09-14T12:19:47;1.10;;;0.47;;
41903;SDS011;27586;51.124;4.182;2022-09-14T12:22:24;1.00;;;0.90;;
41903;SDS011;27586;51.124;4.182;2022-09-14T12:25:02;0.43;;;0.40;;
41903;SDS011;27586;51.124;4.182;2022-09-14T12:27:49;0.47;;;0.47;;
41903;SDS011;27586;51.124;4.182;2022-09-14T12:41:00;0.93;;;0.40;;
41903;SDS011;27586;51.124;4.182;2022-09-14T12:54:04;1.80;;;1.30;;
41903;SDS011;27586;51.124;4.182;2022-09-14T12:57:07;1.20;;;1.10;;
41903;SDS011;27586;51.124;4.182;2022-09-14T13:05:28;2.47;;;1.75;;
41903;SDS011;27586;51.124;4.182;2022-09-14T13:07:56;1.80;;;1.55;;
41903;SDS011;27586;51.124;4.182;2022-09-14T13:12:55;2.47;;;2.13;;
41903;SDS011;27586;51.124;4.182;2022-09-14T13:20:27;2.58;;;2.28;;
41903;SDS011;27586;51.124;4.182;2022-09-14T13:22:55;2.28;;;1.85;;
41903;SDS011;27586;51.124;4.182;2022-09-14T13:25:39;2.40;;;1.67;;
41903;SDS011;27586;51.124;4.182;2022-09-14T13:28:06;1.52;;;1.42;;
41903;SDS011;27586;51.124;4.182;2022-09-14T13:30:37;1.90;;;1.25;;
41903;SDS011;27586;51.124;4.182;2022-09-14T13:33:05;1.05;;;0.95;;
41903;SDS011;27586;51.124;4.182;2022-09-14T13:35:42;1.30;;;1.20;;
41903;SDS011;27586;51.124;4.182;2022-09-14T13:38:30;2.10;;;1.00;;
41903;SDS011;27586;51.124;4.182;2022-09-14T13:41:07;1.40;;;1.02;;
41903;SDS011;27586;51.124;4.182;2022-09-14T13:43:35;1.55;;;1.00;;
41903;SDS011;27586;51.124;4.182;2022-09-14T13:46:03;0.82;;;0.82;;
41903;SDS011;27586;51.124;4.182;2022-09-14T13:48:32;1.17;;;0.93;;
41903;SDS011;27586;51.124;4.182;2022-09-14T13:51:00;1.13;;;1.02;;
41903;SDS011;27586;51.124;4.182;2022-09-14T13:56:40;1.00;;;0.90;;
41903;SDS011;27586;51.124;4.182;2022-09-14T14:04:46;2.20;;;1.30;;
41903;SDS011;27586;51.124;4.182;2022-09-14T14:09:47;1.23;;;1.10;;
41903;SDS011;27586;51.124;4.182;2022-09-14T14:12:31;1.92;;;1.70;;
41903;SDS011;27586;51.124;4.182;2022-09-14T14:17:38;0.93;;;0.90;;
41903;SDS011;27586;51.124;4.182;2022-09-14T14:25:37;4.25;;;2.72;;
41903;SDS011;27586;51.124;4.182;2022-09-14T14:28:15;2.03;;;1.23;;
41903;SDS011;27586;51.124;4.182;2022-09-14T14:30:50;1.30;;;1.20;;
41903;SDS011;27586;51.124;4.182;2022-09-14T14:33:16;1.40;;;1.30;;
41903;SDS011;27586;51.124;4.182;2022-09-14T14:35:43;1.20;;;1.10;;
41903;SDS011;27586;51.124;4.182;2022-09-14T14:38:13;1.45;;;1.20;;
41903;SDS011;27586;51.124;4.182;2022-09-14T14:40:40;2.10;;;1.10;;
41903;SDS011;27586;51.124;4.182;2022-09-14T14:43:06;1.48;;;1.30;;
41903;SDS011;27586;51.124;4.182;2022-09-14T14:45:34;1.92;;;1.40;;
41903;SDS011;27586;51.124;4.182;2022-09-14T14:48:00;3.15;;;1.92;;
41903;SDS011;27586;51.124;4.182;2022-09-14T14:50:28;2.33;;;1.83;;
41903;SDS011;27586;51.124;4.182;2022-09-14T14:52:58;3.08;;;2.20;;
41903;SDS011;27586;51.124;4.182;2022-09-14T14:55:25;2.67;;;2.33;;
41903;SDS011;27586;51.124;4.182;2022-09-14T14:57:57;2.50;;;1.80;;
41903;SDS011;27586;51.124;4.182;2022-09-14T15:00:28;1.98;;;1.48;;
41903;SDS011;27586;51.124;4.182;2022-09-14T15:02:56;1.90;;;1.70;;
41903;SDS011;27586;51.124;4.182;2022-09-14T15:05:22;2.58;;;1.80;;
41903;SDS011;27586;51.124;4.182;2022-09-14T15:07:48;2.55;;;1.70;;
41903;SDS011;27586;51.124;4.182;2022-09-14T15:10:16;3.00;;;1.85;;
41903;SDS011;27586;51.124;4.182;2022-09-14T15:12:43;3.00;;;1.83;;
41903;SDS011;27586;51.124;4.182;2022-09-14T15:15:19;2.60;;;2.15;;
41903;SDS011;27586;51.124;4.182;2022-09-14T15:17:48;3.33;;;2.47;;
41903;SDS011;27586;51.124;4.182;2022-09-14T15:20:14;2.95;;;2.08;;
41903;SDS011;27586;51.124;4.182;2022-09-14T15:22:43;3.00;;;1.98;;
41903;SDS011;27586;51.124;4.182;2022-09-14T15:25:10;9.15;;;4.30;;
41903;SDS011;27586;51.124;4.182;2022-09-14T15:27:36;16.17;;;5.55;;
41903;SDS011;27586;51.124;4.182;2022-09-14T15:30:03;5.70;;;2.47;;
41903;SDS011;27586;51.124;4.182;2022-09-14T15:32:30;1.90;;;1.40;;
41903;SDS011;27586;51.124;4.182;2022-09-14T15:34:55;2.40;;;1.75;;
41903;SDS011;27586;51.124;4.182;2022-09-14T15:37:21;2.28;;;1.98;;
41903;SDS011;27586;51.124;4.182;2022-09-14T15:39:47;3.33;;;2.80;;
41903;SDS011;27586;51.124;4.182;2022-09-14T15:42:14;3.30;;;2.38;;
41903;SDS011;27586;51.124;4.182;2022-09-14T15:44:41;4.53;;;2.90;;
41903;SDS011;27586;51.124;4.182;2022-09-14T15:47:06;4.65;;;3.28;;
41903;SDS011;27586;51.124;4.182;2022-09-14T15:49:33;4.03;;;2.65;;
41903;SDS011;27586;51.124;4.182;2022-09-14T15:51:59;4.18;;;3.22;;
41903;SDS011;27586;51.124;4.182;2022-09-14T15:54:29;3.30;;;2.53;;
41903;SDS011;27586;51.124;4.182;2022-09-14T15:56:56;4.22;;;2.72;;
41903;SDS011;27586;51.124;4.182;2022-09-14T15:59:24;4.57;;;2.97;;
41903;SDS011;27586;51.124;4.182;2022-09-14T16:01:50;4.63;;;2.85;;
41903;SDS011;27586;51.124;4.182;2022-09-14T16:04:17;4.22;;;3.03;;
41903;SDS011;27586;51.124;4.182;2022-09-14T16:06:42;4.07;;;2.65;;
41903;SDS011;27586;51.124;4.182;2022-09-14T16:09:09;5.60;;;3.13;;
41903;SDS011;27586;51.124;4.182;2022-09-14T16:11:36;5.25;;;3.00;;
41903;SDS011;27586;51.124;4.182;2022-09-14T16:14:03;3.08;;;2.63;;
41903;SDS011;27586;51.124;4.182;2022-09-14T16:16:29;4.47;;;2.65;;
41903;SDS011;27586;51.124;4.182;2022-09-14T16:18:56;4.10;;;2.33;;
41903;SDS011;27586;51.124;4.182;2022-09-14T16:21:23;1.83;;;1.45;;
41903;SDS011;27586;51.124;4.182;2022-09-14T16:23:59;2.33;;;1.67;;
41903;SDS011;27586;51.124;4.182;2022-09-14T16:26:28;3.13;;;1.83;;
41903;SDS011;27586;51.124;4.182;2022-09-14T16:28:56;1.58;;;1.38;;
41903;SDS011;27586;51.124;4.182;2022-09-14T16:31:26;1.45;;;1.23;;
41903;SDS011;27586;51.124;4.182;2022-09-14T16:33:55;1.80;;;1.40;;
41903;SDS011;27586;51.124;4.182;2022-09-14T16:36:25;2.22;;;1.52;;
41903;SDS011;27586;51.124;4.182;2022-09-14T16:38:55;1.95;;;1.40;;
41903;SDS011;27586;51.124;4.182;2022-09-14T16:41:21;2.28;;;2.03;;
41903;SDS011;27586;51.124;4.182;2022-09-14T16:43:52;2.72;;;2.35;;
41903;SDS011;27586;51.124;4.182;2022-09-14T16:46:22;1.83;;;1.40;;
41903;SDS011;27586;51.124;4.182;2022-09-14T16:48:49;2.10;;;1.67;;
41903;SDS011;27586;51.124;4.182;2022-09-14T16:51:16;2.35;;;1.65;;
41903;SDS011;27586;51.124;4.182;2022-09-14T16:53:44;1.70;;;1.42;;
41903;SDS011;27586;51.124;4.182;2022-09-14T16:56:14;3.03;;;2.00;;
41903;SDS011;27586;51.124;4.182;2022-09-14T16:58:42;2.10;;;1.30;;
41903;SDS011;27586;51.124;4.182;2022-09-14T17:03:39;1.98;;;1.60;;
41903;SDS011;27586;51.124;4.182;2022-09-14T17:06:06;1.95;;;1.70;;
41903;SDS011;27586;51.124;4.182;2022-09-14T17:08:34;2.65;;;1.77;;
41903;SDS011;27586;51.124;4.182;2022-09-14T17:11:01;2.13;;;1.80;;
41903;SDS011;27586;51.124;4.182;2022-09-14T17:13:28;2.92;;;1.80;;
41903;SDS011;27586;51.124;4.182;2022-09-14T17:16:01;1.90;;;1.60;;
41903;SDS011;27586;51.124;4.182;2022-09-14T17:18:29;1.70;;;1.60;;
41903;SDS011;27586;51.124;4.182;2022-09-14T17:20:56;2.60;;;2.00;;
41903;SDS011;27586;51.124;4.182;2022-09-14T17:23:24;1.90;;;1.63;;
41903;SDS011;27586;51.124;4.182;2022-09-14T17:25:50;2.00;;;1.50;;
41903;SDS011;27586;51.124;4.182;2022-09-14T17:28:16;2.63;;;1.80;;
41903;SDS011;27586;51.124;4.182;2022-09-14T17:30:46;1.80;;;1.65;;
41903;SDS011;27586;51.124;4.182;2022-09-14T17:33:16;1.65;;;1.40;;
41903;SDS011;27586;51.124;4.182;2022-09-14T17:35:48;1.98;;;1.77;;
41903;SDS011;27586;51.124;4.182;2022-09-14T17:38:23;2.28;;;2.00;;
41903;SDS011;27586;51.124;4.182;2022-09-14T17:40:50;2.42;;;1.90;;
41903;SDS011;27586;51.124;4.182;2022-09-14T17:43:16;3.22;;;2.08;;
41903;SDS011;27586;51.124;4.182;2022-09-14T17:45:54;2.28;;;1.80;;
41903;SDS011;27586;51.124;4.182;2022-09-14T17:48:21;2.40;;;1.83;;
41903;SDS011;27586;51.124;4.182;2022-09-14T17:50:47;2.53;;;2.30;;
41903;SDS011;27586;51.124;4.182;2022-09-14T17:53:13;3.80;;;2.38;;
41903;SDS011;27586;51.124;4.182;2022-09-14T17:55:39;3.47;;;2.15;;